createdAt,value
2023-01-29T00:01:52.153Z,7.80
2023-01-29T00:04:58.805Z,7.80
2023-01-29T00:08:02.352Z,7.80
2023-01-29T00:11:06.203Z,7.80
2023-01-29T00:14:08.491Z,7.80
2023-01-29T00:17:10.727Z,7.80
2023-01-29T00:20:13.316Z,7.80
2023-01-29T00:23:15.848Z,7.80
2023-01-29T00:26:18.155Z,7.80
2023-01-29T00:29:23.403Z,7.80
2023-01-29T00:32:25.592Z,7.80
2023-01-29T00:35:27.869Z,7.80
2023-01-29T00:38:30.222Z,7.80
2023-01-29T00:41:52.087Z,7.80
2023-01-29T00:45:00.171Z,7.80
2023-01-29T00:48:05.815Z,7.80
2023-01-29T00:51:07.931Z,7.80
2023-01-29T00:54:10.057Z,7.80
2023-01-29T00:57:12.243Z,7.80
2023-01-29T01:00:17.415Z,7.80
2023-01-29T01:03:20.242Z,7.70
2023-01-29T01:06:22.773Z,7.80
2023-01-29T01:09:43.503Z,7.70
2023-01-29T01:12:45.731Z,7.80
2023-01-29T01:15:47.890Z,7.70
2023-01-29T01:18:50.025Z,7.70
2023-01-29T01:21:52.464Z,7.80
2023-01-29T01:24:54.746Z,7.80
2023-01-29T01:31:11.549Z,7.70
2023-01-29T01:34:14.749Z,7.80
2023-01-29T01:37:16.960Z,7.70
2023-01-29T01:40:23.696Z,7.70
2023-01-29T01:43:26.074Z,7.70
2023-01-29T01:46:34.066Z,7.70
2023-01-29T01:49:36.366Z,7.70
2023-01-29T01:52:42.184Z,7.70
2023-01-29T01:55:59.254Z,7.70
2023-01-29T01:59:01.562Z,7.70
2023-01-29T02:02:23.455Z,7.70
2023-01-29T02:05:45.513Z,7.70
2023-01-29T02:09:12.020Z,7.70
2023-01-29T02:12:16.662Z,7.70
2023-01-29T02:15:18.879Z,7.70
2023-01-29T02:18:21.915Z,7.70
2023-01-29T02:21:49.658Z,7.70
2023-01-29T02:24:58.156Z,7.70
2023-01-29T02:28:16.554Z,7.70
2023-01-29T02:31:53.602Z,7.70
2023-01-29T02:35:26.181Z,7.60
2023-01-29T02:38:45.695Z,7.60
2023-01-29T02:42:20.855Z,7.60
2023-01-29T02:45:33.704Z,7.60
2023-01-29T02:48:55.747Z,7.60
2023-01-29T02:52:16.613Z,7.70
2023-01-29T02:55:38.772Z,7.60
2023-01-29T02:58:49.079Z,7.60
2023-01-29T03:02:24.042Z,7.60
2023-01-29T03:05:35.075Z,7.60
2023-01-29T03:08:50.214Z,7.60
2023-01-29T03:11:59.158Z,7.60
2023-01-29T03:15:25.195Z,7.60
2023-01-29T03:18:59.256Z,7.60
2023-01-29T03:22:04.595Z,7.60
2023-01-29T03:25:28.926Z,7.60
2023-01-29T03:28:51.270Z,7.60
2023-01-29T03:32:09.333Z,7.60
2023-01-29T03:35:33.568Z,7.60
2023-01-29T03:38:36.355Z,7.60
2023-01-29T03:41:58.007Z,7.60
2023-01-29T03:45:19.333Z,7.60
2023-01-29T03:48:31.463Z,7.60
2023-01-29T03:51:37.687Z,7.60
2023-01-29T03:54:44.504Z,7.50
2023-01-29T03:58:03.911Z,7.50
2023-01-29T04:01:14.979Z,7.50
2023-01-29T04:04:22.475Z,7.50
2023-01-29T04:07:26.550Z,7.50
2023-01-29T04:10:39.584Z,7.50
2023-01-29T04:13:43.265Z,7.60
2023-01-29T04:16:51.595Z,7.50
2023-01-29T04:20:12.080Z,7.50
2023-01-29T04:23:24.141Z,7.50
2023-01-29T04:26:39.654Z,7.50
2023-01-29T04:29:53.741Z,7.50
2023-01-29T04:33:33.760Z,7.50
2023-01-29T04:36:47.668Z,7.50
2023-01-29T04:39:56.852Z,7.50
2023-01-29T04:43:28.834Z,7.50
2023-01-29T04:47:09.365Z,7.50
2023-01-29T04:50:28.096Z,7.50
2023-01-29T04:53:38.311Z,7.50
2023-01-29T04:56:56.954Z,7.50
2023-01-29T05:00:13.736Z,7.50
2023-01-29T05:03:16.723Z,7.50
2023-01-29T05:06:20.663Z,7.50
2023-01-29T05:09:23.804Z,7.50
2023-01-29T05:12:28.616Z,7.50
2023-01-29T05:15:38.497Z,7.50
2023-01-29T05:18:41.256Z,7.50
2023-01-29T05:21:49.269Z,7.50
2023-01-29T05:24:51.534Z,7.40
2023-01-29T05:28:16.850Z,7.40
2023-01-29T05:31:19.138Z,7.40
2023-01-29T05:34:21.462Z,7.40
2023-01-29T05:37:23.780Z,7.40
2023-01-29T05:40:26.047Z,7.40
2023-01-29T05:43:28.445Z,7.40
2023-01-29T05:46:30.661Z,7.40
2023-01-29T05:49:32.979Z,7.40
2023-01-29T05:52:35.149Z,7.40
2023-01-29T05:55:37.351Z,7.40
2023-01-29T05:58:39.470Z,7.40
2023-01-29T06:01:41.860Z,7.40
2023-01-29T06:04:44.123Z,7.40
2023-01-29T06:07:47.213Z,7.40
2023-01-29T06:10:49.401Z,7.40
2023-01-29T06:13:51.645Z,7.40
2023-01-29T06:16:53.762Z,7.40
2023-01-29T06:19:55.933Z,7.40
2023-01-29T06:22:58.729Z,7.40
2023-01-29T06:26:05.204Z,7.40
2023-01-29T06:29:07.294Z,7.40
2023-01-29T06:32:09.399Z,7.40
2023-01-29T06:35:11.778Z,7.40
2023-01-29T06:38:13.910Z,7.40
2023-01-29T06:41:18.551Z,7.40
2023-01-29T06:44:20.845Z,7.40
2023-01-29T06:47:24.069Z,7.40
2023-01-29T06:50:26.251Z,7.40
2023-01-29T06:53:28.603Z,7.40
2023-01-29T06:56:30.719Z,7.40
2023-01-29T06:59:33.001Z,7.40
2023-01-29T07:02:35.169Z,7.40
2023-01-29T07:05:38.004Z,7.40
2023-01-29T07:08:40.781Z,7.30
2023-01-29T07:11:43.041Z,7.30
2023-01-29T07:14:45.515Z,7.30
2023-01-29T07:18:12.767Z,7.30
2023-01-29T07:21:15.073Z,7.30
2023-01-29T07:24:17.437Z,7.30
2023-01-29T07:27:19.656Z,7.30
2023-01-29T07:30:21.875Z,7.30
2023-01-29T07:33:24.630Z,7.30
2023-01-29T07:36:27.335Z,7.30
2023-01-29T07:39:29.454Z,7.30
2023-01-29T07:42:31.786Z,7.30
2023-01-29T07:45:38.331Z,7.30
2023-01-29T07:48:40.537Z,7.30
2023-01-29T07:51:43.027Z,7.30
2023-01-29T07:54:45.174Z,7.30
2023-01-29T07:57:47.444Z,7.30
2023-01-29T08:00:49.694Z,7.30
2023-01-29T08:03:51.994Z,7.30
2023-01-29T08:06:54.156Z,7.30
2023-01-29T08:09:56.503Z,7.30
2023-01-29T08:13:00.293Z,7.30
2023-01-29T08:16:04.266Z,7.30
2023-01-29T08:19:06.541Z,7.20
2023-01-29T08:22:08.845Z,7.20
2023-01-29T08:25:11.336Z,7.30
2023-01-29T08:28:13.581Z,7.30
2023-01-29T08:31:17.502Z,7.30
2023-01-29T08:34:19.853Z,7.20
2023-01-29T08:37:22.025Z,7.30
2023-01-29T08:40:24.941Z,7.30
2023-01-29T08:43:27.082Z,7.30
2023-01-29T08:46:29.316Z,7.30
2023-01-29T08:49:31.608Z,7.20
2023-01-29T08:52:33.819Z,7.30
2023-01-29T08:55:40.679Z,7.30
2023-01-29T08:58:43.408Z,7.30
2023-01-29T09:01:45.536Z,7.20
2023-01-29T09:04:47.804Z,7.20
2023-01-29T09:07:50.214Z,7.20
2023-01-29T09:10:53.372Z,7.30
2023-01-29T09:13:55.618Z,7.20
2023-01-29T09:16:57.738Z,7.30
2023-01-29T09:20:00.047Z,7.20
2023-01-29T09:23:06.656Z,7.20
2023-01-29T09:26:09.218Z,7.20
2023-01-29T09:29:11.625Z,7.20
2023-01-29T09:32:14.630Z,7.20
2023-01-29T09:35:17.104Z,7.20
2023-01-29T09:38:19.518Z,7.20
2023-01-29T09:41:33.794Z,7.20
2023-01-29T09:44:49.776Z,7.20
2023-01-29T09:47:53.442Z,7.20
2023-01-29T09:50:58.175Z,7.20
2023-01-29T09:54:24.653Z,7.20
2023-01-29T09:57:48.507Z,7.20
2023-01-29T10:01:00.041Z,7.20
2023-01-29T10:04:02.296Z,7.20
2023-01-29T10:07:36.937Z,7.20
2023-01-29T10:10:52.482Z,7.20
2023-01-29T10:14:22.143Z,7.20
2023-01-29T10:17:59.430Z,7.20
2023-01-29T10:21:36.414Z,7.20
2023-01-29T10:24:58.852Z,7.20
2023-01-29T10:28:01.708Z,7.20
2023-01-29T10:31:15.997Z,7.20
2023-01-29T10:34:31.896Z,7.10
2023-01-29T10:37:41.600Z,7.10
2023-01-29T10:40:58.533Z,7.10
2023-01-29T10:44:33.489Z,7.10
2023-01-29T10:48:29.367Z,7.10
2023-01-29T10:51:31.614Z,7.10
2023-01-29T10:54:45.719Z,7.10
2023-01-29T10:58:02.918Z,7.10
2023-01-29T11:01:05.407Z,7.10
2023-01-29T11:04:13.180Z,7.10
2023-01-29T11:07:18.311Z,7.10
2023-01-29T11:10:22.492Z,7.10
2023-01-29T11:13:31.486Z,7.10
2023-01-29T11:16:47.013Z,7.10
2023-01-29T11:19:55.485Z,7.10
2023-01-29T11:22:58.324Z,7.10
2023-01-29T11:26:01.343Z,7.10
2023-01-29T11:29:03.742Z,7.10
2023-01-29T11:32:19.439Z,7.10
2023-01-29T11:35:24.843Z,7.10
2023-01-29T11:38:29.046Z,7.10
2023-01-29T11:41:42.109Z,7.10
2023-01-29T11:44:44.677Z,7.10
2023-01-29T11:47:52.857Z,7.10
2023-01-29T11:51:00.686Z,7.10
2023-01-29T11:54:05.400Z,7.10
2023-01-29T11:57:32.326Z,7.10
2023-01-29T12:00:37.671Z,7.10
2023-01-29T12:03:53.271Z,7.10
2023-01-29T12:06:55.782Z,7.10
2023-01-29T12:09:59.846Z,7.10
2023-01-29T12:13:28.141Z,7.10
2023-01-29T12:16:58.197Z,7.10
2023-01-29T12:20:10.250Z,7.10
2023-01-29T12:23:12.376Z,7.10
2023-01-29T12:26:40.449Z,7.10
2023-01-29T12:30:01.375Z,7.10
2023-01-29T12:33:11.951Z,7.10
2023-01-29T12:36:23.148Z,7.10
2023-01-29T12:39:25.681Z,7.10
2023-01-29T12:42:28.331Z,7.10
2023-01-29T12:45:32.832Z,7.10
2023-01-29T12:48:38.354Z,7.10
2023-01-29T12:52:03.054Z,7.10
2023-01-29T12:55:38.313Z,7.20
2023-01-29T12:58:52.038Z,7.20
2023-01-29T13:02:02.796Z,7.20
2023-01-29T13:05:28.391Z,7.20
2023-01-29T13:08:53.857Z,7.20
2023-01-29T13:12:12.464Z,7.20
2023-01-29T13:15:22.920Z,7.20
2023-01-29T13:18:49.349Z,7.20
2023-01-29T13:21:54.676Z,7.20
2023-01-29T13:25:04.638Z,7.20
2023-01-29T13:28:18.652Z,7.20
2023-01-29T13:31:32.037Z,7.20
2023-01-29T13:34:49.587Z,7.20
2023-01-29T13:37:55.172Z,7.20
2023-01-29T13:41:03.153Z,7.20
2023-01-29T13:44:08.290Z,7.20
2023-01-29T13:47:20.803Z,7.20
2023-01-29T13:50:33.318Z,7.20
2023-01-29T13:53:40.442Z,7.20
2023-01-29T13:56:50.062Z,7.20
2023-01-29T13:59:54.215Z,7.20
2023-01-29T14:03:04.758Z,7.20
2023-01-29T14:06:07.036Z,7.20
2023-01-29T14:09:30.912Z,7.20
2023-01-29T14:12:36.566Z,7.20
2023-01-29T14:15:41.810Z,7.20
2023-01-29T14:18:58.940Z,7.20
2023-01-29T14:22:01.217Z,7.20
2023-01-29T14:25:06.049Z,7.20
2023-01-29T14:28:19.190Z,7.20
2023-01-29T14:31:39.836Z,7.20
2023-01-29T14:34:48.926Z,7.20
2023-01-29T14:37:56.565Z,7.30
2023-01-29T14:41:46.877Z,7.20
2023-01-29T14:44:59.499Z,7.20
2023-01-29T14:48:36.917Z,7.30
2023-01-29T14:51:44.138Z,7.30
2023-01-29T14:54:48.492Z,7.20
2023-01-29T14:57:52.835Z,7.30
2023-01-29T15:00:57.449Z,7.30
2023-01-29T15:04:24.027Z,7.30
2023-01-29T15:07:35.523Z,7.30
2023-01-29T15:10:44.307Z,7.30
2023-01-29T15:14:24.147Z,7.20
2023-01-29T15:17:36.694Z,7.30
2023-01-29T15:20:41.194Z,7.30
2023-01-29T15:23:44.540Z,7.30
2023-01-29T15:26:46.775Z,7.30
2023-01-29T15:29:57.259Z,7.30
2023-01-29T15:33:01.025Z,7.30
2023-01-29T15:36:08.672Z,7.30
2023-01-29T15:39:22.834Z,7.30
2023-01-29T15:42:28.148Z,7.30
2023-01-29T15:45:32.812Z,7.30
2023-01-29T15:48:41.808Z,7.30
2023-01-29T15:51:44.203Z,7.30
2023-01-29T15:54:47.315Z,7.30
2023-01-29T15:57:50.375Z,7.30
2023-01-29T16:00:54.931Z,7.30
2023-01-29T16:04:02.433Z,7.30
2023-01-29T16:07:04.738Z,7.30
2023-01-29T16:10:08.055Z,7.30
2023-01-29T16:13:22.278Z,7.30
2023-01-29T16:16:26.195Z,7.30
2023-01-29T16:19:29.804Z,7.30
2023-01-29T16:22:36.536Z,7.30
2023-01-29T16:25:39.449Z,7.30
2023-01-29T16:28:46.206Z,7.30
2023-01-29T16:31:53.161Z,7.30
2023-01-29T16:34:59.221Z,7.30
2023-01-29T16:38:15.401Z,7.40
2023-01-29T16:41:26.321Z,7.30
2023-01-29T16:44:28.542Z,7.30
2023-01-29T16:47:37.549Z,7.30
2023-01-29T16:50:54.064Z,7.40
2023-01-29T16:54:12.668Z,7.40
2023-01-29T16:57:19.091Z,7.30
2023-01-29T17:00:25.353Z,7.40
2023-01-29T17:03:30.400Z,7.40
2023-01-29T17:06:33.360Z,7.40
2023-01-29T17:09:37.935Z,7.40
2023-01-29T17:12:40.216Z,7.40
2023-01-29T17:15:43.274Z,7.40
2023-01-29T17:18:45.419Z,7.40
2023-01-29T17:21:48.085Z,7.40
2023-01-29T17:24:51.926Z,7.40
2023-01-29T17:27:54.343Z,7.40
2023-01-29T17:31:05.762Z,7.40
2023-01-29T17:34:14.861Z,7.40
2023-01-29T17:37:17.374Z,7.40
2023-01-29T17:40:37.658Z,7.40
2023-01-29T17:43:39.897Z,7.40
2023-01-29T17:46:43.024Z,7.40
2023-01-29T17:49:45.250Z,7.40
2023-01-29T17:52:47.438Z,7.50
2023-01-29T17:55:50.503Z,7.50
2023-01-29T17:58:52.627Z,7.50
2023-01-29T18:01:55.385Z,7.40
2023-01-29T18:04:57.645Z,7.40
2023-01-29T18:07:59.925Z,7.40
2023-01-29T18:11:02.217Z,7.50
2023-01-29T18:14:10.888Z,7.50
2023-01-29T18:17:22.239Z,7.40
2023-01-29T18:20:25.837Z,7.40
2023-01-29T18:23:29.609Z,7.40
2023-01-29T18:26:31.811Z,7.40
2023-01-29T18:29:34.061Z,7.40
2023-01-29T18:32:36.363Z,7.40
2023-01-29T18:35:38.482Z,7.40
2023-01-29T18:38:40.729Z,7.50
2023-01-29T18:41:43.116Z,7.40
2023-01-29T18:44:45.316Z,7.40
2023-01-29T18:47:48.762Z,7.50
2023-01-29T18:50:51.451Z,7.40
2023-01-29T18:53:53.759Z,7.50
2023-01-29T18:57:08.765Z,7.50
2023-01-29T19:00:17.120Z,7.40
2023-01-29T19:03:19.505Z,7.50
2023-01-29T19:06:21.685Z,7.40
2023-01-29T19:09:23.907Z,7.40
2023-01-29T19:12:26.205Z,7.40
2023-01-29T19:15:28.441Z,7.40
2023-01-29T19:18:30.601Z,7.50
2023-01-29T19:21:36.099Z,7.40
2023-01-29T19:24:39.151Z,7.40
2023-01-29T19:27:41.519Z,7.50
2023-01-29T19:30:43.768Z,7.40
2023-01-29T19:33:46.048Z,7.50
2023-01-29T19:36:49.199Z,7.40
2023-01-29T19:39:51.981Z,7.40
2023-01-29T19:42:55.660Z,7.40
2023-01-29T19:46:02.140Z,7.50
2023-01-29T19:49:06.715Z,7.50
2023-01-29T19:52:14.977Z,7.40
2023-01-29T19:55:17.669Z,7.40
2023-01-29T19:58:20.245Z,7.50
2023-01-29T20:01:22.404Z,7.50
2023-01-29T20:04:24.698Z,7.40
2023-01-29T20:07:27.083Z,7.40
2023-01-29T20:10:29.241Z,7.40
2023-01-29T20:13:32.301Z,7.40
2023-01-29T20:16:34.604Z,7.40
2023-01-29T20:19:37.008Z,7.40
2023-01-29T20:22:39.130Z,7.40
2023-01-29T20:25:41.785Z,7.40
2023-01-29T20:28:47.128Z,7.40
2023-01-29T20:31:49.385Z,7.40
2023-01-29T20:34:52.560Z,7.40
2023-01-29T20:37:54.643Z,7.40
2023-01-29T20:41:03.188Z,7.40
2023-01-29T20:44:05.466Z,7.40
2023-01-29T20:47:08.631Z,7.40
2023-01-29T20:50:12.463Z,7.40
2023-01-29T20:53:14.601Z,7.40
2023-01-29T20:56:17.907Z,7.40
2023-01-29T20:59:20.586Z,7.40
2023-01-29T21:02:23.132Z,7.40
2023-01-29T21:05:25.474Z,7.40
2023-01-29T21:08:27.620Z,7.40
2023-01-29T21:11:30.028Z,7.40
2023-01-29T21:14:32.871Z,7.40
2023-01-29T21:17:35.141Z,7.40
2023-01-29T21:20:37.451Z,7.40
2023-01-29T21:23:39.659Z,7.40
2023-01-29T21:26:41.927Z,7.40
2023-01-29T21:29:44.197Z,7.40
2023-01-29T21:32:46.623Z,7.40
2023-01-29T21:35:57.880Z,7.40
2023-01-29T21:39:00.100Z,7.30
2023-01-29T21:42:20.691Z,7.40
2023-01-29T21:45:23.109Z,7.40
2023-01-29T21:48:25.460Z,7.30
2023-01-29T21:51:27.727Z,7.30
2023-01-29T21:54:31.316Z,7.30
2023-01-29T21:57:33.581Z,7.30
2023-01-29T22:00:35.989Z,7.30
2023-01-29T22:03:38.120Z,7.30
2023-01-29T22:06:40.303Z,7.40
2023-01-29T22:09:42.508Z,7.30
2023-01-29T22:12:45.042Z,7.30
2023-01-29T22:15:47.192Z,7.30
2023-01-29T22:18:50.046Z,7.30
2023-01-29T22:21:53.458Z,7.30
2023-01-29T22:24:56.591Z,7.30
2023-01-29T22:27:58.895Z,7.30
2023-01-29T22:31:05.629Z,7.30
2023-01-29T22:34:07.807Z,7.30
2023-01-29T22:37:10.057Z,7.30
2023-01-29T22:40:13.192Z,7.30
2023-01-29T22:43:15.309Z,7.30
2023-01-29T22:46:17.564Z,7.30
2023-01-29T22:49:19.886Z,7.30
2023-01-29T22:52:22.351Z,7.30
2023-01-29T22:55:24.473Z,7.30
2023-01-29T22:58:26.625Z,7.30
2023-01-29T23:01:31.399Z,7.30
2023-01-29T23:04:33.920Z,7.30
2023-01-29T23:07:36.140Z,7.30
2023-01-29T23:10:38.563Z,7.30
2023-01-29T23:13:47.083Z,7.30
2023-01-29T23:16:49.241Z,7.30
2023-01-29T23:19:51.397Z,7.30
2023-01-29T23:22:53.576Z,7.30
2023-01-29T23:26:18.635Z,7.30
2023-01-29T23:29:21.129Z,7.30
2023-01-29T23:32:23.403Z,7.30
2023-01-29T23:35:25.642Z,7.30
2023-01-29T23:38:27.909Z,7.30
2023-01-29T23:41:30.189Z,7.30
2023-01-29T23:44:32.375Z,7.30
2023-01-29T23:47:34.654Z,7.30
2023-01-29T23:50:36.735Z,7.30
2023-01-29T23:53:38.974Z,7.30
2023-01-29T23:56:41.227Z,7.30
2023-01-29T23:59:43.435Z,7.30
